createdAt,value
2018-03-27T00:01:33.042Z,71.83
2018-03-27T00:04:01.362Z,71.86
2018-03-27T00:06:29.707Z,72.02
2018-03-27T00:08:58.035Z,72.10
2018-03-27T00:11:26.370Z,71.94
2018-03-27T00:13:54.694Z,71.77
2018-03-27T00:16:23.040Z,71.59
2018-03-27T00:18:51.357Z,71.54
2018-03-27T00:21:19.742Z,71.56
2018-03-27T00:23:48.404Z,71.52
2018-03-27T00:26:16.735Z,71.62
2018-03-27T00:28:56.687Z,71.60
2018-03-27T00:31:42.670Z,71.68
2018-03-27T00:34:28.917Z,71.61
2018-03-27T00:37:15.031Z,71.76
2018-03-27T00:40:01.183Z,71.78
2018-03-27T00:42:42.890Z,71.64
2018-03-27T00:45:10.954Z,71.41
2018-03-27T00:47:38.990Z,71.64
2018-03-27T00:50:07.054Z,71.71
2018-03-27T00:52:35.374Z,71.67
2018-03-27T00:55:03.695Z,71.56
2018-03-27T00:57:32.036Z,71.52
2018-03-27T01:00:00.346Z,71.72
2018-03-27T01:02:28.682Z,71.76
2018-03-27T01:04:57.002Z,71.74
2018-03-27T01:07:25.346Z,71.60
2018-03-27T01:09:53.666Z,71.52
2018-03-27T01:12:22.006Z,71.58
2018-03-27T01:14:50.330Z,71.65
2018-03-27T01:17:18.666Z,71.75
2018-03-27T01:19:46.995Z,71.58
2018-03-27T01:22:15.337Z,71.64
2018-03-27T01:24:43.657Z,71.67
2018-03-27T01:27:11.993Z,71.59
2018-03-27T01:29:40.309Z,71.73
2018-03-27T01:32:08.649Z,71.83
2018-03-27T01:34:36.970Z,71.55
2018-03-27T01:37:05.306Z,71.38
2018-03-27T01:39:33.621Z,71.50
2018-03-27T01:42:01.966Z,72.13
2018-03-27T01:44:30.287Z,72.45
2018-03-27T01:46:58.634Z,72.48
2018-03-27T01:49:26.949Z,72.56
2018-03-27T01:51:55.290Z,72.43
2018-03-27T01:54:23.610Z,72.29
2018-03-27T01:56:52.001Z,72.67
2018-03-27T01:59:20.321Z,73.23
2018-03-27T02:01:48.663Z,71.84
2018-03-27T02:04:16.986Z,71.24
2018-03-27T02:06:45.330Z,70.73
2018-03-27T02:09:13.657Z,70.51
2018-03-27T02:11:47.714Z,70.41
2018-03-27T02:14:21.702Z,70.32
2018-03-27T02:16:55.514Z,70.51
2018-03-27T02:19:29.409Z,70.54
2018-03-27T02:21:57.190Z,70.46
2018-03-27T02:24:26.291Z,70.10
2018-03-27T02:26:54.635Z,69.81
2018-03-27T02:29:22.954Z,69.83
2018-03-27T02:31:51.298Z,69.82
2018-03-27T02:34:19.610Z,69.71
2018-03-27T02:36:47.958Z,69.85
2018-03-27T02:39:16.281Z,69.94
2018-03-27T02:41:44.622Z,69.82
2018-03-27T02:44:12.939Z,69.85
2018-03-27T02:46:41.282Z,69.83
2018-03-27T02:49:09.607Z,69.81
2018-03-27T02:51:37.946Z,69.97
2018-03-27T02:54:06.266Z,69.92
2018-03-27T02:56:34.602Z,69.80
2018-03-27T02:59:02.924Z,69.66
2018-03-27T03:01:31.259Z,69.79
2018-03-27T03:03:59.584Z,70.29
2018-03-27T03:06:27.928Z,70.63
2018-03-27T03:08:56.246Z,70.46
2018-03-27T03:11:24.606Z,70.35
2018-03-27T03:13:52.934Z,70.29
2018-03-27T03:16:21.253Z,70.26
2018-03-27T03:18:49.597Z,70.20
2018-03-27T03:21:17.918Z,70.13
2018-03-27T03:23:46.273Z,70.42
2018-03-27T03:26:14.590Z,70.69
2018-03-27T03:28:42.931Z,70.63
2018-03-27T03:31:11.258Z,70.48
2018-03-27T03:33:39.594Z,70.29
2018-03-27T03:36:07.922Z,70.20
2018-03-27T03:38:36.262Z,70.22
2018-03-27T03:41:04.586Z,70.09
2018-03-27T03:43:32.926Z,70.04
2018-03-27T03:46:01.246Z,70.21
2018-03-27T03:48:29.638Z,70.33
2018-03-27T03:50:57.962Z,70.23
2018-03-27T03:53:26.305Z,70.25
2018-03-27T03:55:54.626Z,70.27
2018-03-27T03:58:22.957Z,70.36
2018-03-27T04:00:51.278Z,70.58
2018-03-27T04:03:19.619Z,70.29
2018-03-27T04:05:47.937Z,70.78
2018-03-27T04:08:16.287Z,71.23
2018-03-27T04:10:44.604Z,71.90
2018-03-27T04:13:12.945Z,72.09
2018-03-27T04:15:41.258Z,72.78
2018-03-27T04:18:09.602Z,72.78
2018-03-27T04:20:37.922Z,72.52
2018-03-27T04:23:06.262Z,72.33
2018-03-27T04:25:34.586Z,72.09
2018-03-27T04:28:02.921Z,71.97
2018-03-27T04:30:31.237Z,71.84
2018-03-27T04:32:59.586Z,71.70
2018-03-27T04:35:27.903Z,71.60
2018-03-27T04:37:56.243Z,71.64
2018-03-27T04:40:24.575Z,71.57
2018-03-27T04:42:52.924Z,71.60
2018-03-27T04:45:21.244Z,71.68
2018-03-27T04:47:49.607Z,71.61
2018-03-27T04:50:17.932Z,71.50
2018-03-27T04:52:46.270Z,71.17
2018-03-27T04:55:14.590Z,71.68
2018-03-27T04:57:42.937Z,71.67
2018-03-27T05:00:11.259Z,72.59
2018-03-27T05:02:39.790Z,72.78
2018-03-27T05:05:08.142Z,72.64
2018-03-27T05:07:36.486Z,72.52
2018-03-27T05:10:04.811Z,72.67
2018-03-27T05:12:33.154Z,72.93
2018-03-27T05:15:01.474Z,73.35
2018-03-27T05:17:29.818Z,73.45
2018-03-27T05:19:58.147Z,73.23
2018-03-27T05:22:27.122Z,73.08
2018-03-27T05:24:55.462Z,72.92
2018-03-27T05:27:23.809Z,72.76
2018-03-27T05:29:52.186Z,73.23
2018-03-27T05:32:20.511Z,73.44
2018-03-27T05:34:48.855Z,73.47
2018-03-27T05:37:17.177Z,73.00
2018-03-27T05:39:45.518Z,72.91
2018-03-27T05:42:13.988Z,73.01
2018-03-27T05:44:42.363Z,73.09
2018-03-27T05:47:10.686Z,72.91
2018-03-27T05:49:39.038Z,73.04
2018-03-27T05:52:07.686Z,73.25
2018-03-27T05:54:36.055Z,72.99
2018-03-27T05:57:04.473Z,73.03
2018-03-27T05:59:32.807Z,73.21
2018-03-27T06:02:01.226Z,73.50
2018-03-27T06:04:30.558Z,73.79
2018-03-27T06:06:59.381Z,73.92
2018-03-27T06:09:27.722Z,74.04
2018-03-27T06:11:56.042Z,74.44
2018-03-27T06:14:24.390Z,74.45
2018-03-27T06:16:52.711Z,74.02
2018-03-27T06:19:21.060Z,73.67
2018-03-27T06:21:49.377Z,73.24
2018-03-27T06:24:17.726Z,73.58
2018-03-27T06:26:49.232Z,73.43
2018-03-27T06:29:17.574Z,73.34
2018-03-27T06:31:46.333Z,73.15
2018-03-27T06:34:14.671Z,72.97
2018-03-27T06:36:43.915Z,72.84
2018-03-27T06:39:13.110Z,73.04
2018-03-27T06:41:41.438Z,73.55
2018-03-27T06:44:09.790Z,73.69
2018-03-27T06:46:38.111Z,73.86
2018-03-27T06:49:06.458Z,73.62
2018-03-27T06:51:34.790Z,73.36
2018-03-27T06:54:03.139Z,73.05
2018-03-27T06:56:31.471Z,73.05
2018-03-27T06:58:59.855Z,73.26
2018-03-27T07:01:28.145Z,73.50
2018-03-27T07:03:56.497Z,73.84
2018-03-27T07:06:24.858Z,73.92
2018-03-27T07:11:26.925Z,74.17
2018-03-27T07:13:55.284Z,73.81
2018-03-27T07:16:23.620Z,73.89
2018-03-27T07:18:51.999Z,73.50
2018-03-27T07:21:20.296Z,72.96
2018-03-27T07:23:48.644Z,72.14
2018-03-27T07:26:16.968Z,72.22
2018-03-27T07:28:45.286Z,72.45
2018-03-27T07:31:13.635Z,72.81
2018-03-27T07:33:41.954Z,72.97
2018-03-27T07:36:10.749Z,73.07
2018-03-27T07:38:39.071Z,72.58
2018-03-27T07:41:07.434Z,72.62
2018-03-27T07:43:35.758Z,72.52
2018-03-27T07:46:04.118Z,72.37
2018-03-27T07:48:32.434Z,72.24
2018-03-27T07:51:00.778Z,72.00
2018-03-27T07:53:29.106Z,71.95
2018-03-27T07:55:57.450Z,71.74
2018-03-27T07:58:25.782Z,70.98
2018-03-27T08:00:54.130Z,70.40
2018-03-27T08:03:22.460Z,70.12
2018-03-27T08:05:50.819Z,69.74
2018-03-27T08:08:19.206Z,69.42
2018-03-27T08:10:47.554Z,68.79
2018-03-27T08:13:15.878Z,68.89
2018-03-27T08:15:44.238Z,69.00
2018-03-27T08:18:12.554Z,68.87
2018-03-27T08:20:40.902Z,67.87
2018-03-27T08:23:09.247Z,67.64
2018-03-27T08:25:37.590Z,67.33
2018-03-27T08:28:05.913Z,67.09
2018-03-27T08:30:34.262Z,67.13
2018-03-27T08:33:02.582Z,67.05
2018-03-27T08:35:30.934Z,66.98
2018-03-27T08:37:59.263Z,66.42
2018-03-27T08:40:27.614Z,66.30
2018-03-27T08:42:55.938Z,66.24
2018-03-27T08:45:24.284Z,65.82
2018-03-27T08:47:52.606Z,65.56
2018-03-27T08:50:21.394Z,64.96
2018-03-27T08:52:49.722Z,64.76
2018-03-27T08:55:18.072Z,64.42
2018-03-27T08:57:46.401Z,64.96
2018-03-27T09:00:14.742Z,65.57
2018-03-27T09:02:43.074Z,65.58
2018-03-27T09:05:11.417Z,67.01
2018-03-27T09:07:39.973Z,65.54
2018-03-27T09:10:08.423Z,66.36
2018-03-27T09:12:36.743Z,65.34
2018-03-27T09:15:05.085Z,65.39
2018-03-27T09:17:33.409Z,65.06
2018-03-27T09:20:01.755Z,63.73
2018-03-27T09:22:30.303Z,62.43
2018-03-27T09:24:58.746Z,63.18
2018-03-27T09:27:27.072Z,63.35
2018-03-27T09:29:55.913Z,61.31
2018-03-27T09:32:24.367Z,61.48
2018-03-27T09:34:52.813Z,60.97
2018-03-27T09:37:21.254Z,61.37
2018-03-27T09:39:49.586Z,61.63
2018-03-27T09:42:17.970Z,60.72
2018-03-27T09:44:46.294Z,61.78
2018-03-27T09:47:14.738Z,60.73
2018-03-27T09:49:43.435Z,60.90
2018-03-27T09:52:11.782Z,60.46
2018-03-27T09:54:40.106Z,60.15
2018-03-27T09:57:08.488Z,60.29
2018-03-27T09:59:36.825Z,59.45
2018-03-27T10:02:05.206Z,60.13
2018-03-27T10:04:33.514Z,60.44
2018-03-27T10:07:01.866Z,60.07
2018-03-27T10:09:30.363Z,60.03
2018-03-27T10:11:58.719Z,60.13
2018-03-27T10:14:27.049Z,59.44
2018-03-27T10:16:55.402Z,59.71
2018-03-27T10:19:23.751Z,57.97
2018-03-27T10:21:52.110Z,58.64
2018-03-27T10:24:20.432Z,58.96
2018-03-27T10:26:48.862Z,57.71
2018-03-27T10:29:17.187Z,55.89
2018-03-27T10:31:45.538Z,55.63
2018-03-27T10:34:13.866Z,56.35
2018-03-27T10:36:42.215Z,55.39
2018-03-27T10:39:10.547Z,55.61
2018-03-27T10:41:38.901Z,54.75
2018-03-27T10:44:07.230Z,54.49
2018-03-27T10:46:37.402Z,54.24
2018-03-27T10:49:05.945Z,55.53
2018-03-27T10:51:34.355Z,54.56
2018-03-27T10:54:02.696Z,54.71
2018-03-27T10:56:31.039Z,54.50
2018-03-27T10:58:59.370Z,54.85
2018-03-27T11:01:27.722Z,53.63
2018-03-27T11:03:56.061Z,53.27
2018-03-27T11:06:24.426Z,53.15
2018-03-27T11:08:52.755Z,54.31
2018-03-27T11:11:21.151Z,54.02
2018-03-27T11:13:49.496Z,51.79
2018-03-27T11:16:18.746Z,53.29
2018-03-27T11:18:47.097Z,53.19
2018-03-27T11:21:15.446Z,53.56
2018-03-27T11:23:43.769Z,53.88
2018-03-27T11:26:12.181Z,54.75
2018-03-27T11:28:40.512Z,54.94
2018-03-27T11:31:08.895Z,54.08
2018-03-27T11:33:37.241Z,52.34
2018-03-27T11:36:05.602Z,51.76
2018-03-27T11:38:34.062Z,51.66
2018-03-27T11:41:02.443Z,52.69
2018-03-27T11:43:30.857Z,51.07
2018-03-27T11:45:59.368Z,51.39
2018-03-27T11:48:27.714Z,51.77
2018-03-27T11:50:56.100Z,51.83
2018-03-27T11:53:24.442Z,52.54
2018-03-27T11:55:52.837Z,53.35
2018-03-27T11:58:21.221Z,53.38
2018-03-27T12:03:48.534Z,52.18
2018-03-27T12:06:16.970Z,50.98
2018-03-27T12:08:45.318Z,50.89
2018-03-27T12:11:13.663Z,48.66
2018-03-27T12:13:42.024Z,49.53
2018-03-27T12:16:10.841Z,50.03
2018-03-27T12:18:39.213Z,49.65
2018-03-27T12:21:07.636Z,50.54
2018-03-27T12:23:36.027Z,50.57
2018-03-27T12:26:04.515Z,47.86
2018-03-27T12:28:32.858Z,48.27
2018-03-27T12:31:01.199Z,49.17
2018-03-27T12:33:29.601Z,48.14
2018-03-27T12:35:57.921Z,48.50
2018-03-27T12:38:26.323Z,48.40
2018-03-27T12:40:54.658Z,48.72
2018-03-27T12:43:23.015Z,48.22
2018-03-27T12:45:52.226Z,47.26
2018-03-27T12:48:20.587Z,48.14
2018-03-27T12:50:48.960Z,48.94
2018-03-27T12:53:17.342Z,48.90
2018-03-27T12:55:45.646Z,47.68
2018-03-27T12:58:14.001Z,47.12
2018-03-27T13:00:42.333Z,48.89
2018-03-27T13:03:10.741Z,49.55
2018-03-27T13:05:39.093Z,47.87
2018-03-27T13:08:07.437Z,47.09
2018-03-27T13:10:35.779Z,46.65
2018-03-27T13:13:04.134Z,47.12
2018-03-27T13:15:32.466Z,46.71
2018-03-27T13:18:00.826Z,46.46
2018-03-27T13:20:29.158Z,47.71
2018-03-27T13:22:57.524Z,47.74
2018-03-27T13:25:25.869Z,46.80
2018-03-27T13:27:54.215Z,48.11
2018-03-27T13:30:22.567Z,46.87
2018-03-27T13:32:50.934Z,46.91
2018-03-27T13:35:19.266Z,47.55
2018-03-27T13:37:47.631Z,47.48
2018-03-27T13:40:15.961Z,47.43
2018-03-27T13:42:44.310Z,46.74
2018-03-27T13:45:13.697Z,47.64
2018-03-27T13:47:42.043Z,44.37
2018-03-27T13:50:10.379Z,44.99
2018-03-27T13:52:38.735Z,45.45
2018-03-27T13:55:07.067Z,45.72
2018-03-27T13:57:35.425Z,44.49
2018-03-27T14:00:03.768Z,43.83
2018-03-27T14:02:32.148Z,43.41
2018-03-27T14:05:00.466Z,45.10
2018-03-27T14:07:28.803Z,43.33
2018-03-27T14:09:57.157Z,43.26
2018-03-27T14:12:25.500Z,42.24
2018-03-27T14:14:53.849Z,43.12
2018-03-27T14:17:22.203Z,44.36
2018-03-27T14:20:08.476Z,43.91
2018-03-27T14:22:38.960Z,44.13
2018-03-27T14:25:07.378Z,45.06
2018-03-27T14:27:35.756Z,44.81
2018-03-27T14:30:04.147Z,44.54
2018-03-27T14:32:32.532Z,44.95
2018-03-27T14:35:01.062Z,43.37
2018-03-27T14:37:29.511Z,43.58
2018-03-27T14:39:57.929Z,43.29
2018-03-27T14:42:26.322Z,42.88
2018-03-27T14:44:54.721Z,42.42
2018-03-27T14:47:23.323Z,42.89
2018-03-27T14:49:51.711Z,42.44
2018-03-27T14:52:20.104Z,43.16
2018-03-27T14:54:48.645Z,43.42
2018-03-27T14:57:16.968Z,44.69
2018-03-27T14:59:45.415Z,43.96
2018-03-27T15:02:13.784Z,43.23
2018-03-27T15:04:42.187Z,43.79
2018-03-27T15:07:10.521Z,43.11
2018-03-27T15:09:38.929Z,43.80
2018-03-27T15:12:07.342Z,44.19
2018-03-27T15:14:35.678Z,43.54
2018-03-27T15:17:04.019Z,43.19
2018-03-27T15:19:32.422Z,42.44
2018-03-27T15:22:00.775Z,42.96
2018-03-27T15:24:29.134Z,43.11
2018-03-27T15:26:57.481Z,43.58
2018-03-27T15:29:25.875Z,43.00
2018-03-27T15:31:54.206Z,43.42
2018-03-27T15:34:23.306Z,42.77
2018-03-27T15:36:51.637Z,43.53
2018-03-27T15:39:20.054Z,42.74
2018-03-27T15:41:48.394Z,43.63
2018-03-27T15:44:16.741Z,43.46
2018-03-27T15:46:46.062Z,44.46
2018-03-27T15:49:14.458Z,44.78
2018-03-27T15:51:42.854Z,44.39
2018-03-27T15:54:11.199Z,43.74
2018-03-27T15:56:39.537Z,44.03
2018-03-27T15:59:08.533Z,44.26
2018-03-27T16:01:36.882Z,44.24
2018-03-27T16:04:05.346Z,44.25
2018-03-27T16:06:33.786Z,44.30
2018-03-27T16:09:02.158Z,44.35
2018-03-27T16:11:30.499Z,44.55
2018-03-27T16:13:58.869Z,44.98
2018-03-27T16:16:28.180Z,44.72
2018-03-27T16:18:56.543Z,45.17
2018-03-27T16:21:24.878Z,45.08
2018-03-27T16:23:53.250Z,45.33
2018-03-27T16:26:21.584Z,45.22
2018-03-27T16:28:49.953Z,45.38
2018-03-27T16:31:18.330Z,45.35
2018-03-27T16:33:46.661Z,45.52
2018-03-27T16:36:15.031Z,45.28
2018-03-27T16:38:43.365Z,45.44
2018-03-27T16:41:11.730Z,45.86
2018-03-27T16:43:40.071Z,46.22
2018-03-27T16:46:08.432Z,46.15
2018-03-27T16:48:36.763Z,46.66
2018-03-27T16:51:05.118Z,46.57
2018-03-27T16:53:33.453Z,46.64
2018-03-27T16:56:01.805Z,46.52
2018-03-27T16:58:30.142Z,46.92
2018-03-27T17:00:58.510Z,47.24
2018-03-27T17:03:27.753Z,47.07
2018-03-27T17:05:56.266Z,47.21
2018-03-27T17:08:24.610Z,47.24
2018-03-27T17:10:53.007Z,46.39
2018-03-27T17:13:22.482Z,46.76
2018-03-27T17:15:50.854Z,46.99
2018-03-27T17:18:19.226Z,47.25
2018-03-27T17:20:47.583Z,47.82
2018-03-27T17:23:15.915Z,47.87
2018-03-27T17:25:44.274Z,48.11
2018-03-27T17:28:12.606Z,48.28
2018-03-27T17:30:40.966Z,47.92
2018-03-27T17:33:09.346Z,48.56
2018-03-27T17:35:37.810Z,48.55
2018-03-27T17:38:06.148Z,48.63
2018-03-27T17:40:34.692Z,49.04
2018-03-27T17:43:03.022Z,48.76
2018-03-27T17:45:31.445Z,48.20
2018-03-27T17:47:59.762Z,47.54
2018-03-27T17:50:28.119Z,48.24
2018-03-27T17:52:56.450Z,47.99
2018-03-27T17:55:24.802Z,48.41
2018-03-27T17:57:53.139Z,48.52
2018-03-27T18:00:21.492Z,48.17
2018-03-27T18:02:49.831Z,48.48
2018-03-27T18:05:18.169Z,48.05
2018-03-27T18:07:46.502Z,48.43
2018-03-27T18:10:14.854Z,48.07
2018-03-27T18:12:43.197Z,48.27
2018-03-27T18:15:11.698Z,48.15
2018-03-27T18:17:40.040Z,48.34
2018-03-27T18:20:08.385Z,46.99
2018-03-27T18:22:36.723Z,47.68
2018-03-27T18:25:05.096Z,47.86
2018-03-27T18:27:33.413Z,48.48
2018-03-27T18:30:01.746Z,47.78
2018-03-27T18:32:30.934Z,48.66
2018-03-27T18:34:59.258Z,48.86
2018-03-27T18:37:27.614Z,48.85
2018-03-27T18:39:55.942Z,49.63
2018-03-27T18:42:24.363Z,49.86
2018-03-27T18:44:53.456Z,49.66
2018-03-27T18:47:21.944Z,49.99
2018-03-27T18:49:50.292Z,49.94
2018-03-27T18:52:18.642Z,50.29
2018-03-27T18:54:46.978Z,50.97
2018-03-27T18:57:15.335Z,50.84
2018-03-27T18:59:43.658Z,50.97
2018-03-27T19:02:12.018Z,50.47
2018-03-27T19:04:40.357Z,50.35
2018-03-27T19:07:08.706Z,50.50
2018-03-27T19:09:37.144Z,50.82
2018-03-27T19:12:05.510Z,51.85
2018-03-27T19:14:35.661Z,52.79
2018-03-27T19:17:04.014Z,53.97
2018-03-27T19:19:33.194Z,55.20
2018-03-27T19:22:01.596Z,55.59
2018-03-27T19:24:29.939Z,57.39
2018-03-27T19:26:58.342Z,59.57
2018-03-27T19:29:26.678Z,60.84
2018-03-27T19:31:55.034Z,62.12
2018-03-27T19:34:23.370Z,62.41
2018-03-27T19:36:51.714Z,63.41
2018-03-27T19:39:20.042Z,63.88
2018-03-27T19:41:48.393Z,64.52
2018-03-27T19:44:16.731Z,64.92
2018-03-27T19:46:45.093Z,65.48
2018-03-27T19:49:31.134Z,65.79
2018-03-27T19:52:02.314Z,65.29
2018-03-27T19:54:30.649Z,64.78
2018-03-27T19:56:59.001Z,64.01
2018-03-27T19:59:27.371Z,64.01
2018-03-27T20:01:55.818Z,63.80
2018-03-27T20:04:24.866Z,63.60
2018-03-27T20:06:53.206Z,63.29
2018-03-27T20:09:21.534Z,63.49
2018-03-27T20:11:49.886Z,64.09
2018-03-27T20:14:18.239Z,64.28
2018-03-27T20:16:46.610Z,64.66
2018-03-27T20:19:14.963Z,64.94
2018-03-27T20:21:43.520Z,65.10
2018-03-27T20:24:12.382Z,65.30
2018-03-27T20:26:40.745Z,65.65
2018-03-27T20:29:09.066Z,65.97
2018-03-27T20:31:37.413Z,66.37
2018-03-27T20:34:05.742Z,66.42
2018-03-27T20:36:34.093Z,66.88
2018-03-27T20:39:02.421Z,67.37
2018-03-27T20:41:30.775Z,67.22
2018-03-27T20:44:00.122Z,67.30
2018-03-27T20:46:28.470Z,67.67
2018-03-27T20:48:56.809Z,68.07
2018-03-27T20:51:25.154Z,68.61
2018-03-27T20:53:53.485Z,68.81
2018-03-27T20:56:21.819Z,68.84
2018-03-27T20:58:50.170Z,68.93
2018-03-27T21:01:18.493Z,69.16
2018-03-27T21:03:46.963Z,69.36
2018-03-27T21:06:15.283Z,69.62
2018-03-27T21:08:43.630Z,70.15
2018-03-27T21:11:11.960Z,70.66
2018-03-27T21:13:40.306Z,70.65
2018-03-27T21:16:08.630Z,71.02
2018-03-27T21:18:36.970Z,71.21
2018-03-27T21:21:05.312Z,71.87
2018-03-27T21:23:33.647Z,72.12
2018-03-27T21:26:01.963Z,72.33
2018-03-27T21:28:30.306Z,72.45
2018-03-27T21:30:58.631Z,72.76
2018-03-27T21:33:26.985Z,72.59
2018-03-27T21:35:55.304Z,72.63
2018-03-27T21:38:23.646Z,72.39
2018-03-27T21:40:51.975Z,72.50
2018-03-27T21:43:20.319Z,72.39
2018-03-27T21:45:48.651Z,72.43
2018-03-27T21:48:16.994Z,72.59
2018-03-27T21:50:45.324Z,72.42
2018-03-27T21:53:13.667Z,72.44
2018-03-27T21:55:41.991Z,72.53
2018-03-27T21:58:10.341Z,72.57
2018-03-27T22:00:38.660Z,72.65
2018-03-27T22:03:07.002Z,72.84
2018-03-27T22:05:35.329Z,72.90
2018-03-27T22:08:03.729Z,72.77
2018-03-27T22:10:32.034Z,72.71
2018-03-27T22:13:00.388Z,71.09
2018-03-27T22:15:28.713Z,72.16
2018-03-27T22:17:57.053Z,72.95
2018-03-27T22:20:25.794Z,73.63
2018-03-27T22:22:54.138Z,73.88
2018-03-27T22:25:22.468Z,74.21
2018-03-27T22:27:50.818Z,74.28
2018-03-27T22:30:19.142Z,74.29
2018-03-27T22:32:47.483Z,74.25
2018-03-27T22:35:15.802Z,74.41
2018-03-27T22:37:44.160Z,75.16
2018-03-27T22:40:12.618Z,74.74
2018-03-27T22:42:40.962Z,74.53
2018-03-27T22:45:09.286Z,74.59
2018-03-27T22:47:37.634Z,74.64
2018-03-27T22:50:05.953Z,74.60
2018-03-27T22:52:34.318Z,74.78
2018-03-27T22:55:02.644Z,74.80
2018-03-27T22:57:30.962Z,74.71
2018-03-27T22:59:59.309Z,74.83
2018-03-27T23:02:27.625Z,74.98
2018-03-27T23:04:55.969Z,74.96
2018-03-27T23:07:24.299Z,74.90
2018-03-27T23:09:52.643Z,74.79
2018-03-27T23:12:20.982Z,74.92
2018-03-27T23:14:49.318Z,75.13
2018-03-27T23:17:17.786Z,74.96
2018-03-27T23:19:46.161Z,74.92
2018-03-27T23:22:26.368Z,74.70
2018-03-27T23:24:54.710Z,74.80
2018-03-27T23:27:23.033Z,71.31
2018-03-27T23:29:51.386Z,72.74
2018-03-27T23:32:19.710Z,73.69
2018-03-27T23:34:48.053Z,74.11
2018-03-27T23:37:16.374Z,74.39
2018-03-27T23:39:44.728Z,74.42
2018-03-27T23:42:13.042Z,74.85
2018-03-27T23:44:41.602Z,74.96
2018-03-27T23:47:09.934Z,74.98
2018-03-27T23:49:38.286Z,74.80
2018-03-27T23:52:06.636Z,74.63
2018-03-27T23:54:34.950Z,74.57
2018-03-27T23:57:03.270Z,74.72
2018-03-27T23:59:31.614Z,74.89
